Epic Capri — 9HA2845 — position and weather

sailwx.info

Track history (hours):
 
Tides and Currents Weather Stations Pressure Air Temp Water Temp Dewpoint Dewpoint Depression Visibility Wind Speed Wind Dir Waves Ship Positions

Epic Capri

Last reported at 2016-Nov-30 21:33 UTC. Time now 2016-Dec-05 04:24 UTC.
Position N 37°39' W 009°17'.

Length 99 m; draft 5.5 m.

Type: Ship (hazmat cat B). MMSI: 256325000.

Date/timePositionNaut miles runAvg speedWind from/ knotsBaromVisibWave heightAir tempDewpointWater temp
2016-Nov-30 21:33N 37°39' W 009°17'9 9.2
2016-Nov-30 20:33N 37°45' W 009°08'9 8.7
2016-Nov-30 19:34N 37°51' W 008°59'8 7.7
2016-Nov-30 18:33N 37°57' W 008°53'0 0.1
2016-Nov-30 17:33N 37°57' W 008°53'0 0.0
2016-Nov-30 16:33N 37°57' W 008°53'0 0.0
2016-Nov-30 15:33N 37°57' W 008°53'0 0.0
2016-Nov-30 14:33N 37°57' W 008°53'0 0.0
2016-Nov-30 13:33N 37°57' W 008°53'0 0.0
2016-Nov-30 12:33N 37°57' W 008°53'0 0.0
2016-Nov-30 11:33N 37°57' W 008°53'0 0.0
2016-Nov-30 10:33N 37°57' W 008°53'0 0.0
2016-Nov-30 09:33N 37°57' W 008°53'0 0.0
2016-Nov-30 08:33N 37°57' W 008°53'0 0.0
2016-Nov-30 07:33N 37°57' W 008°53'0 0.0
2016-Nov-30 06:33N 37°57' W 008°53'0 0.0
2016-Nov-30 05:33N 37°57' W 008°53'0 0.0
2016-Nov-30 04:33N 37°57' W 008°53'0 0.0
2016-Nov-30 03:33N 37°57' W 008°53'0 0.0
2016-Nov-30 02:33N 37°57' W 008°53'0 0.0
2016-Nov-30 01:33N 37°57' W 008°53'0 0.0
2016-Nov-30 00:33N 37°57' W 008°53'0 0.0
2016-Nov-29 23:33N 37°57' W 008°53'2 2.1
2016-Nov-29 22:31N 37°55' W 008°52'0 0.0
2016-Nov-29 21:31N 37°55' W 008°52'0 0.0
2016-Nov-29 20:31N 37°55' W 008°52'0 0.0
2016-Nov-29 19:31N 37°55' W 008°52'0 0.0
2016-Nov-29 18:31N 37°55' W 008°52'0 0.0
2016-Nov-29 17:31N 37°55' W 008°52'0 0.0
2016-Nov-29 16:31N 37°55' W 008°52'0 0.0
2016-Nov-29 15:31N 37°55' W 008°52'0 0.0
2016-Nov-29 14:31N 37°55' W 008°52'0 0.0
2016-Nov-29 13:31N 37°55' W 008°52'0 0.0
2016-Nov-29 12:31N 37°55' W 008°52'0 0.0
2016-Nov-29 11:31N 37°55' W 008°52'0 0.0
2016-Nov-29 10:31N 37°55' W 008°52'0 0.0
2016-Nov-29 09:31N 37°55' W 008°52'0 0.0
2016-Nov-29 08:31N 37°55' W 008°52'0 0.0
2016-Nov-29 07:31N 37°55' W 008°52'0 0.0
2016-Nov-29 06:31N 37°55' W 008°52'0 0.0
2016-Nov-29 05:31N 37°55' W 008°52'0 0.0
2016-Nov-29 04:31N 37°55' W 008°52'0 0.0
2016-Nov-29 03:31N 37°55' W 008°52'0 0.0
2016-Nov-29 02:31N 37°55' W 008°52'0 0.0
2016-Nov-29 01:28N 37°55' W 008°52'0 0.0
2016-Nov-29 00:31N 37°55' W 008°52'0 0.1
2016-Nov-28 23:31N 37°55' W 008°52'0 0.0
2016-Nov-28 22:31N 37°55' W 008°52'0 0.0
2016-Nov-28 21:31N 37°55' W 008°52'0 0.0
2016-Nov-28 20:31N 37°55' W 008°52'0 0.0
2016-Nov-28 19:31N 37°55' W 008°52'0 0.0
2016-Nov-28 18:33N 37°55' W 008°52'0 0.0
2016-Nov-28 17:33N 37°55' W 008°52'0 0.0
2016-Nov-28 16:33N 37°55' W 008°52'0 0.0
2016-Nov-28 15:33N 37°55' W 008°52'0 0.0
2016-Nov-28 14:33N 37°55' W 008°52'4 3.9
2016-Nov-28 13:33N 37°57' W 008°56'1110.6
2016-Nov-28 12:33N 38°03' W 009°08'1312.4
2016-Nov-28 11:33N 38°07' W 009°22'2512.6
2016-Nov-28 09:32N 38°16' W 009°52'4410.8
2016-Nov-28 05:26N 38°58' W 010°11'1211.6
2016-Nov-28 04:23N 39°09' W 010°05'12 0.2
2016-Nov-26 01:25N 39°17' W 009°54'910.1
2016-Nov-26 00:33N 39°09' W 009°57'10 9.7
2016-Nov-25 23:32N 38°59' W 009°57'9 9.5
2016-Nov-25 22:33N 38°50' W 009°57'9 9.4
2016-Nov-25 21:33N 38°40' W 009°57'9 9.0
2016-Nov-25 20:33N 38°32' W 009°54'9 9.0
2016-Nov-25 19:33N 38°23' W 009°51'9 8.9
2016-Nov-25 18:33N 38°17' W 009°43'18 9.1
2016-Nov-25 16:31N 38°06' W 009°24'9 9.0
2016-Nov-25 15:34N 38°01' W 009°15'9 9.3
2016-Nov-25 14:33N 37°56' W 009°04'8 8.2
2016-Nov-25 13:33N 37°55' W 008°54'2 1.8
2016-Nov-25 12:33N 37°57' W 008°53'0 0.0
2016-Nov-25 11:33N 37°57' W 008°53'0 0.0
2016-Nov-25 10:33N 37°57' W 008°53'0 0.0
2016-Nov-25 09:33N 37°57' W 008°53'0 0.0
2016-Nov-25 08:33N 37°57' W 008°53'0 0.0
2016-Nov-25 07:33N 37°57' W 008°53'0 0.0
2016-Nov-25 06:33N 37°57' W 008°53'0 0.0
2016-Nov-25 05:33N 37°57' W 008°53'0 0.0
2016-Nov-25 04:33N 37°57' W 008°53'0 0.0
2016-Nov-25 03:33N 37°57' W 008°53'0 0.0
2016-Nov-25 02:30N 37°57' W 008°53'0 0.0
2016-Nov-25 01:30N 37°57' W 008°53'0 0.0
2016-Nov-25 00:33N 37°57' W 008°53'0 0.0
2016-Nov-24 23:33N 37°57' W 008°53'0 0.0
2016-Nov-24 22:33N 37°57' W 008°53'0 0.0
2016-Nov-24 21:33N 37°57' W 008°53'0 0.0
2016-Nov-24 20:33N 37°57' W 008°53'0 0.0
2016-Nov-24 19:33N 37°57' W 008°53'0 0.0
2016-Nov-24 18:33N 37°57' W 008°53'0 0.0
2016-Nov-24 17:33N 37°57' W 008°53'0 0.0
2016-Nov-24 16:33N 37°57' W 008°53'0 0.0
2016-Nov-24 15:33N 37°57' W 008°53'0 0.0
2016-Nov-24 14:32N 37°57' W 008°53'0 0.0
2016-Nov-24 13:32N 37°57' W 008°53'0 0.0
2016-Nov-24 12:32N 37°57' W 008°53'0 0.0
2016-Nov-24 11:29N 37°57' W 008°53'0 0.0
2016-Nov-24 10:32N 37°57' W 008°53'0 0.0
2016-Nov-24 09:32N 37°57' W 008°53'0 0.0
2016-Nov-24 08:29N 37°57' W 008°53'0 0.0
2016-Nov-24 07:32N 37°57' W 008°53'0 0.0
2016-Nov-24 06:29N 37°57' W 008°53'0 0.0
2016-Nov-24 05:32N 37°57' W 008°53'0 0.0
2016-Nov-24 04:32N 37°57' W 008°53'0 0.0
2016-Nov-24 03:32N 37°57' W 008°53'0 0.0
2016-Nov-24 02:32N 37°57' W 008°53'2 2.5
2016-Nov-24 01:33N 37°58' W 008°56'9 9.0
2016-Nov-24 00:33N 38°02' W 009°06'1110.7
2016-Nov-23 23:33N 38°06' W 009°19'1110.8
2016-Nov-23 22:33N 38°10' W 009°32'49 9.5
2016-Nov-23 17:22N 38°47' W 010°12'1010.9
2016-Nov-23 16:28N 38°57' W 010°12'1011.2
2016-Nov-23 15:33N 39°07' W 010°10'  
Track history (hours):
 
Tides and Currents Weather Stations Pressure Air Temp Water Temp Dewpoint Dewpoint Depression Visibility Wind Speed Wind Dir Waves Ship Positions

Epic Capri

Last reported at 2016-Nov-30 21:33 UTC. Time now 2016-Dec-05 04:24 UTC.
Position N 37°39' W 009°17'.

Length 99 m; draft 5.5 m.

Type: Ship (hazmat cat B). MMSI: 256325000.

Date/timePositionNaut miles runAvg speedWind from/ knotsBaromVisibWave heightAir tempDewpointWater temp
2016-Nov-30 21:33N 37°39' W 009°17'9 9.2
2016-Nov-30 20:33N 37°45' W 009°08'9 8.7
2016-Nov-30 19:34N 37°51' W 008°59'8 7.7
2016-Nov-30 18:33N 37°57' W 008°53'0 0.1
2016-Nov-30 17:33N 37°57' W 008°53'0 0.0
2016-Nov-30 16:33N 37°57' W 008°53'0 0.0
2016-Nov-30 15:33N 37°57' W 008°53'0 0.0
2016-Nov-30 14:33N 37°57' W 008°53'0 0.0
2016-Nov-30 13:33N 37°57' W 008°53'0 0.0
2016-Nov-30 12:33N 37°57' W 008°53'0 0.0
2016-Nov-30 11:33N 37°57' W 008°53'0 0.0
2016-Nov-30 10:33N 37°57' W 008°53'0 0.0
2016-Nov-30 09:33N 37°57' W 008°53'0 0.0
2016-Nov-30 08:33N 37°57' W 008°53'0 0.0
2016-Nov-30 07:33N 37°57' W 008°53'0 0.0
2016-Nov-30 06:33N 37°57' W 008°53'0 0.0
2016-Nov-30 05:33N 37°57' W 008°53'0 0.0
2016-Nov-30 04:33N 37°57' W 008°53'0 0.0
2016-Nov-30 03:33N 37°57' W 008°53'0 0.0
2016-Nov-30 02:33N 37°57' W 008°53'0 0.0
2016-Nov-30 01:33N 37°57' W 008°53'0 0.0
2016-Nov-30 00:33N 37°57' W 008°53'0 0.0
2016-Nov-29 23:33N 37°57' W 008°53'2 2.1
2016-Nov-29 22:31N 37°55' W 008°52'0 0.0
2016-Nov-29 21:31N 37°55' W 008°52'0 0.0
2016-Nov-29 20:31N 37°55' W 008°52'0 0.0
2016-Nov-29 19:31N 37°55' W 008°52'0 0.0
2016-Nov-29 18:31N 37°55' W 008°52'0 0.0
2016-Nov-29 17:31N 37°55' W 008°52'0 0.0
2016-Nov-29 16:31N 37°55' W 008°52'0 0.0
2016-Nov-29 15:31N 37°55' W 008°52'0 0.0
2016-Nov-29 14:31N 37°55' W 008°52'0 0.0
2016-Nov-29 13:31N 37°55' W 008°52'0 0.0
2016-Nov-29 12:31N 37°55' W 008°52'0 0.0
2016-Nov-29 11:31N 37°55' W 008°52'0 0.0
2016-Nov-29 10:31N 37°55' W 008°52'0 0.0
2016-Nov-29 09:31N 37°55' W 008°52'0 0.0
2016-Nov-29 08:31N 37°55' W 008°52'0 0.0
2016-Nov-29 07:31N 37°55' W 008°52'0 0.0
2016-Nov-29 06:31N 37°55' W 008°52'0 0.0
2016-Nov-29 05:31N 37°55' W 008°52'0 0.0
2016-Nov-29 04:31N 37°55' W 008°52'0 0.0
2016-Nov-29 03:31N 37°55' W 008°52'0 0.0
2016-Nov-29 02:31N 37°55' W 008°52'0 0.0
2016-Nov-29 01:28N 37°55' W 008°52'0 0.0
2016-Nov-29 00:31N 37°55' W 008°52'0 0.1
2016-Nov-28 23:31N 37°55' W 008°52'0 0.0
2016-Nov-28 22:31N 37°55' W 008°52'0 0.0
2016-Nov-28 21:31N 37°55' W 008°52'0 0.0
2016-Nov-28 20:31N 37°55' W 008°52'0 0.0
2016-Nov-28 19:31N 37°55' W 008°52'0 0.0
2016-Nov-28 18:33N 37°55' W 008°52'0 0.0
2016-Nov-28 17:33N 37°55' W 008°52'0 0.0
2016-Nov-28 16:33N 37°55' W 008°52'0 0.0
2016-Nov-28 15:33N 37°55' W 008°52'0 0.0
2016-Nov-28 14:33N 37°55' W 008°52'4 3.9
2016-Nov-28 13:33N 37°57' W 008°56'1110.6
2016-Nov-28 12:33N 38°03' W 009°08'1312.4
2016-Nov-28 11:33N 38°07' W 009°22'2512.6
2016-Nov-28 09:32N 38°16' W 009°52'4410.8
2016-Nov-28 05:26N 38°58' W 010°11'1211.6
2016-Nov-28 04:23N 39°09' W 010°05'12 0.2
2016-Nov-26 01:25N 39°17' W 009°54'910.1
2016-Nov-26 00:33N 39°09' W 009°57'10 9.7
2016-Nov-25 23:32N 38°59' W 009°57'9 9.5
2016-Nov-25 22:33N 38°50' W 009°57'9 9.4
2016-Nov-25 21:33N 38°40' W 009°57'9 9.0
2016-Nov-25 20:33N 38°32' W 009°54'9 9.0
2016-Nov-25 19:33N 38°23' W 009°51'9 8.9
2016-Nov-25 18:33N 38°17' W 009°43'18 9.1
2016-Nov-25 16:31N 38°06' W 009°24'9 9.0
2016-Nov-25 15:34N 38°01' W 009°15'9 9.3
2016-Nov-25 14:33N 37°56' W 009°04'8 8.2
2016-Nov-25 13:33N 37°55' W 008°54'2 1.8
2016-Nov-25 12:33N 37°57' W 008°53'0 0.0
2016-Nov-25 11:33N 37°57' W 008°53'0 0.0
2016-Nov-25 10:33N 37°57' W 008°53'0 0.0
2016-Nov-25 09:33N 37°57' W 008°53'0 0.0
2016-Nov-25 08:33N 37°57' W 008°53'0 0.0
2016-Nov-25 07:33N 37°57' W 008°53'0 0.0
2016-Nov-25 06:33N 37°57' W 008°53'0 0.0
2016-Nov-25 05:33N 37°57' W 008°53'0 0.0
2016-Nov-25 04:33N 37°57' W 008°53'0 0.0
2016-Nov-25 03:33N 37°57' W 008°53'0 0.0
2016-Nov-25 02:30N 37°57' W 008°53'0 0.0
2016-Nov-25 01:30N 37°57' W 008°53'0 0.0
2016-Nov-25 00:33N 37°57' W 008°53'0 0.0
2016-Nov-24 23:33N 37°57' W 008°53'0 0.0
2016-Nov-24 22:33N 37°57' W 008°53'0 0.0
2016-Nov-24 21:33N 37°57' W 008°53'0 0.0
2016-Nov-24 20:33N 37°57' W 008°53'0 0.0
2016-Nov-24 19:33N 37°57' W 008°53'0 0.0
2016-Nov-24 18:33N 37°57' W 008°53'0 0.0
2016-Nov-24 17:33N 37°57' W 008°53'0 0.0
2016-Nov-24 16:33N 37°57' W 008°53'0 0.0
2016-Nov-24 15:33N 37°57' W 008°53'0 0.0
2016-Nov-24 14:32N 37°57' W 008°53'0 0.0
2016-Nov-24 13:32N 37°57' W 008°53'0 0.0
2016-Nov-24 12:32N 37°57' W 008°53'0 0.0
2016-Nov-24 11:29N 37°57' W 008°53'0 0.0
2016-Nov-24 10:32N 37°57' W 008°53'0 0.0
2016-Nov-24 09:32N 37°57' W 008°53'0 0.0
2016-Nov-24 08:29N 37°57' W 008°53'0 0.0
2016-Nov-24 07:32N 37°57' W 008°53'0 0.0
2016-Nov-24 06:29N 37°57' W 008°53'0 0.0
2016-Nov-24 05:32N 37°57' W 008°53'0 0.0
2016-Nov-24 04:32N 37°57' W 008°53'0 0.0
2016-Nov-24 03:32N 37°57' W 008°53'0 0.0
2016-Nov-24 02:32N 37°57' W 008°53'2 2.5
2016-Nov-24 01:33N 37°58' W 008°56'9 9.0
2016-Nov-24 00:33N 38°02' W 009°06'1110.7
2016-Nov-23 23:33N 38°06' W 009°19'1110.8
2016-Nov-23 22:33N 38°10' W 009°32'49 9.5
2016-Nov-23 17:22N 38°47' W 010°12'1010.9
2016-Nov-23 16:28N 38°57' W 010°12'1011.2
2016-Nov-23 15:33N 39°07' W 010°10'  

Dump ship's entire track history